Time;durP1;ratioP1;P1;durP2;ratioP2;P2;SDS_P1;SDS_P2;PMS_P1;PMS_P2;Temp;Humidity;BMP_temperature;BMP_pressure;BME280_temperature;BME280_humidity;BME280_pressure;Samples;Min_cycle;Max_cycle;Signal;HPM_P1;HPM_P2
2022/08/26 00:01:07;;;;;;;167.30;83.40;;;20.60;99.90;;;;;;4954605;29;20489;-73
2022/08/26 00:03:35;;;;;;;163.57;84.43;;;20.60;99.90;;;;;;4954338;29;20047;-72
2022/08/26 00:06:00;;;;;;;172.43;86.45;;;20.70;99.90;;;;;;4954340;29;20043;-72
2022/08/26 00:08:26;;;;;;;170.60;89.37;;;20.50;99.90;;;;;;4936935;29;20586;-72
2022/08/26 00:10:52;;;;;;;174.00;87.00;;;20.50;99.90;;;;;;4954418;29;20395;-72
2022/08/26 00:13:18;;;;;;;180.47;86.97;;;20.50;99.90;;;;;;4925470;29;20051;-73
2022/08/26 00:15:45;;;;;;;168.53;87.47;;;20.40;99.90;;;;;;4934614;29;20291;-72
2022/08/26 00:18:12;;;;;;;173.40;86.40;;;20.40;99.90;;;;;;4947019;29;20128;-72
2022/08/26 00:20:38;;;;;;;178.35;87.68;;;20.30;99.90;;;;;;4953760;29;20124;-79
2022/08/26 00:23:05;;;;;;;172.38;85.53;;;20.30;99.90;;;;;;4952809;29;20440;-71
2022/08/26 00:25:31;;;;;;;;;;;20.30;99.90;;;;;;4920526;29;20420;-72
2022/08/26 00:27:57;;;;;;;163.45;82.65;;;20.20;99.90;;;;;;4933786;29;20061;-71
2022/08/26 00:30:26;;;;;;;180.03;87.33;;;20.20;99.90;;;;;;4936689;29;20079;-71
2022/08/26 00:32:52;;;;;;;177.15;86.38;;;20.10;99.90;;;;;;4952799;29;20175;-73
2022/08/26 00:35:18;;;;;;;178.38;89.22;;;20.10;99.90;;;;;;4953262;28;20042;-72
2022/08/26 00:37:45;;;;;;;173.93;86.93;;;20.10;99.90;;;;;;4935864;29;20074;-71
2022/08/26 00:40:15;;;;;;;187.55;90.75;;;20.10;99.90;;;;;;4936577;29;20043;-73
2022/08/26 00:42:41;;;;;;;176.80;88.47;;;20.00;99.90;;;;;;4951759;29;20039;-73
2022/08/26 00:45:07;;;;;;;190.98;93.32;;;20.00;99.90;;;;;;4953759;29;20062;-72
2022/08/26 00:47:43;;;;;;;196.25;91.13;;;20.00;99.90;;;;;;4936180;29;20051;-73
2022/08/26 00:50:13;;;;;;;175.05;85.70;;;20.00;99.90;;;;;;4952905;29;20071;-71
2022/08/26 00:52:40;;;;;;;167.18;83.38;;;19.90;99.90;;;;;;4952778;29;20411;-78
2022/08/26 00:55:35;;;;;;;176.52;83.68;;;19.90;99.90;;;;;;4953325;28;20054;-72
2022/08/26 00:58:02;;;;;;;180.40;85.40;;;20.00;99.90;;;;;;4943705;29;20058;-71
2022/08/26 01:00:30;;;;;;;174.43;81.10;;;20.00;99.90;;;;;;4951413;29;20044;-71
2022/08/26 01:02:57;;;;;;;181.52;80.05;;;20.00;99.90;;;;;;4935250;29;20043;-73
2022/08/26 01:05:24;;;;;;;167.98;73.10;;;20.00;99.90;;;;;;4935236;29;20055;-72
2022/08/26 01:07:50;;;;;;;156.38;71.20;;;20.20;99.90;;;;;;4935441;29;20055;-72
2022/08/26 01:10:20;;;;;;;155.00;69.00;;;20.20;99.90;;;;;;4936151;29;20066;-72
2022/08/26 01:12:51;;;;;;;147.75;66.00;;;20.20;99.90;;;;;;4917141;28;20055;-72
2022/08/26 01:15:23;;;;;;;151.63;67.50;;;20.20;99.90;;;;;;4953226;29;20059;-72
2022/08/26 01:17:49;;;;;;;148.15;65.40;;;20.20;99.90;;;;;;4952076;29;20448;-73
2022/08/26 01:20:26;;;;;;;163.77;69.75;;;20.20;99.90;;;;;;4954373;29;20145;-72
2022/08/26 01:22:59;;;;;;;158.10;68.53;;;20.10;99.90;;;;;;4952770;29;20146;-71
2022/08/26 01:25:29;;;;;;;150.45;65.07;;;20.00;99.90;;;;;;4935100;29;20051;-71
2022/08/26 01:27:56;;;;;;;146.80;62.17;;;20.10;99.90;;;;;;4948917;29;20047;-74
2022/08/26 01:30:26;;;;;;;129.65;58.10;;;20.00;99.90;;;;;;4953249;29;20051;-70
2022/08/26 01:32:56;;;;;;;135.57;63.20;;;20.20;99.90;;;;;;4935184;29;20051;-73
2022/08/26 01:35:21;;;;;;;127.30;57.80;;;20.20;99.90;;;;;;4936217;29;20082;-71
2022/08/26 01:37:52;;;;;;;142.73;62.00;;;20.10;99.90;;;;;;4951874;28;20082;-73
2022/08/26 01:40:22;;;;;;;127.95;58.40;;;20.00;99.90;;;;;;4952187;28;20047;-74
2022/08/26 01:42:49;;;;;;;148.93;59.95;;;20.10;99.90;;;;;;4949613;28;20121;-72
2022/08/26 01:45:24;;;;;;;132.63;57.95;;;20.00;99.90;;;;;;4934990;29;20134;-72
2022/08/26 01:47:52;;;;;;;125.68;56.85;;;20.10;99.90;;;;;;4952206;29;20059;-72
2022/08/26 01:50:23;;;;;;;120.97;53.50;;;20.10;99.90;;;;;;4952815;29;20198;-73
2022/08/26 01:52:49;;;;;;;124.38;54.88;;;20.10;99.90;;;;;;4951036;28;20520;-74
2022/08/26 01:55:17;;;;;;;114.00;51.45;;;20.10;99.90;;;;;;4935660;29;20047;-72
2022/08/26 01:57:46;;;;;;;115.10;53.17;;;20.20;99.90;;;;;;4933286;29;20062;-73
2022/08/26 02:00:13;;;;;;;102.75;48.85;;;20.10;99.90;;;;;;4951684;28;20086;-71
2022/08/26 02:02:44;;;;;;;109.50;50.88;;;20.20;99.90;;;;;;4952301;28;20058;-70
2022/08/26 02:05:17;;;;;;;106.07;48.45;;;20.20;99.90;;;;;;4951085;28;20059;-74
2022/08/26 02:07:44;;;;;;;106.50;51.55;;;20.20;99.90;;;;;;4933266;29;20059;-71
2022/08/26 02:10:09;;;;;;;;;;;20.20;99.90;;;;;;4933449;29;20098;-72
2022/08/26 02:12:36;;;;;;;91.68;44.50;;;20.20;99.90;;;;;;4932471;29;20377;-72
2022/08/26 02:15:05;;;;;;;101.72;49.13;;;20.30;99.90;;;;;;4900325;29;20126;-71
2022/08/26 02:17:42;;;;;;;96.53;46.33;;;20.30;99.90;;;;;;4946860;28;20146;-71
2022/08/26 02:20:13;;;;;;;100.32;45.08;;;20.20;99.90;;;;;;4951239;28;20128;-72
2022/08/26 02:22:40;;;;;;;90.72;43.70;;;20.20;99.90;;;;;;4952209;28;20047;-71
2022/08/26 02:25:20;;;;;;;94.07;44.47;;;20.20;99.90;;;;;;4934774;29;20047;-73
2022/08/26 02:27:47;;;;;;;88.18;43.10;;;20.20;99.90;;;;;;4950617;29;20047;-72
2022/08/26 02:30:22;;;;;;;;;;;20.20;99.90;;;;;;4950691;29;20484;-71
2022/08/26 02:32:48;;;;;;;99.72;43.80;;;20.30;99.90;;;;;;4952320;29;19922;-71
2022/08/26 02:35:17;;;;;;;84.55;42.95;;;20.20;99.90;;;;;;4952271;29;20056;-69
2022/08/26 02:37:43;;;;;;;78.00;39.63;;;20.20;99.90;;;;;;4936942;29;20055;-72
2022/08/26 02:40:11;;;;;;;82.30;38.67;;;20.10;99.90;;;;;;4956920;29;20133;-72
2022/08/26 02:42:37;;;;;;;74.55;40.05;;;20.20;99.90;;;;;;4954239;28;20047;-73
2022/08/26 02:45:05;;;;;;;76.10;37.23;;;20.10;99.90;;;;;;4937764;29;20047;-71
2022/08/26 02:47:33;;;;;;;70.20;34.80;;;20.10;99.90;;;;;;4953418;29;20066;-71
2022/08/26 02:49:59;;;;;;;69.03;34.47;;;20.10;99.90;;;;;;4920785;29;20039;-72
2022/08/26 02:52:25;;;;;;;67.55;33.70;;;20.00;99.90;;;;;;4938308;29;20047;-71
2022/08/26 02:54:52;;;;;;;72.13;33.90;;;20.00;99.90;;;;;;4922139;29;20051;-72
2022/08/26 02:57:18;;;;;;;65.65;30.70;;;20.00;99.90;;;;;;4952921;29;20070;-72
2022/08/26 02:59:44;;;;;;;64.30;30.03;;;19.90;99.90;;;;;;4955655;29;20133;-72
2022/08/26 03:02:10;;;;;;;60.70;31.77;;;20.00;99.90;;;;;;4936757;29;20432;-74
2022/08/26 03:04:37;;;;;;;62.35;28.88;;;20.00;99.90;;;;;;4938517;29;20039;-71
2022/08/26 03:07:04;;;;;;;61.35;29.42;;;20.00;99.90;;;;;;4954385;28;20043;-71
2022/08/26 03:09:30;;;;;;;66.43;29.27;;;20.00;99.90;;;;;;4955249;28;20051;-74
2022/08/26 03:11:56;;;;;;;56.00;27.70;;;20.00;99.90;;;;;;4954792;29;20054;-78
2022/08/26 03:14:22;;;;;;;62.97;27.20;;;20.00;99.90;;;;;;4936020;29;20348;-72
2022/08/26 03:16:50;;;;;;;62.78;28.90;;;20.00;99.90;;;;;;4937421;29;20095;-71
2022/08/26 03:19:16;;;;;;;57.15;28.63;;;20.00;99.90;;;;;;4937550;29;20526;-72
2022/08/26 03:21:42;;;;;;;70.00;26.98;;;19.90;99.90;;;;;;4938038;29;20055;-71
2022/08/26 03:24:10;;;;;;;55.80;28.63;;;19.90;99.90;;;;;;4954595;29;20082;-71
2022/08/26 03:26:36;;;;;;;58.75;27.73;;;20.00;99.90;;;;;;4954836;29;20130;-76
2022/08/26 03:31:46;;;;;;;63.05;26.80;;;19.90;99.90;;;;;;4954483;29;20043;-72
2022/08/26 03:34:12;;;;;;;52.73;26.67;;;20.00;99.90;;;;;;4937262;29;20051;-73
2022/08/26 03:36:38;;;;;;;69.27;28.13;;;20.00;99.90;;;;;;4954098;29;20138;-73
2022/08/26 03:39:04;;;;;;;53.58;26.48;;;20.00;99.90;;;;;;4937226;29;20054;-73
2022/08/26 03:41:32;;;;;;;51.85;25.63;;;20.00;99.90;;;;;;4955080;29;20066;-74
2022/08/26 03:43:58;;;;;;;62.35;25.15;;;20.00;99.90;;;;;;4950127;29;20051;-71
2022/08/26 03:46:23;;;;;;;53.87;26.57;;;20.10;99.90;;;;;;4953598;29;20102;-71
2022/08/26 03:48:49;;;;;;;64.33;26.77;;;20.00;99.90;;;;;;4937521;29;20051;-71
2022/08/26 03:51:18;;;;;;;57.70;27.70;;;20.00;99.90;;;;;;4954636;29;20102;-71
2022/08/26 03:53:45;;;;;;;54.67;27.55;;;20.00;99.90;;;;;;4936963;29;20391;-71
2022/08/26 03:56:11;;;;;;;;;;;20.00;99.90;;;;;;4956077;29;20138;-73
2022/08/26 03:58:37;;;;;;;51.80;25.58;;;19.90;99.90;;;;;;4953953;29;19922;-72
2022/08/26 04:01:03;;;;;;;60.05;28.88;;;19.90;99.90;;;;;;4938952;29;20049;-74
2022/08/26 04:06:14;;;;;;;56.83;27.02;;;19.90;99.90;;;;;;4953516;29;20043;-70
2022/08/26 04:08:40;;;;;;;54.60;26.55;;;20.00;99.90;;;;;;4953921;28;20070;-73
2022/08/26 04:11:06;;;;;;;61.63;27.10;;;20.00;99.90;;;;;;4937273;29;20043;-71
2022/08/26 04:13:32;;;;;;;56.90;26.43;;;20.10;99.90;;;;;;4936146;29;20055;-71
2022/08/26 04:15:58;;;;;;;56.65;25.25;;;20.00;99.90;;;;;;4954490;29;20045;-71
2022/08/26 04:18:25;;;;;;;61.00;26.60;;;20.10;99.90;;;;;;4951757;29;20039;-70
2022/08/26 04:20:51;;;;;;;53.53;27.67;;;20.10;99.90;;;;;;4954531;29;20086;-73
2022/08/26 04:23:17;;;;;;;52.80;25.87;;;20.00;99.90;;;;;;4936439;29;20515;-70
2022/08/26 04:25:42;;;;;;;53.77;24.47;;;20.10;99.90;;;;;;4954120;29;20055;-72
2022/08/26 04:28:09;;;;;;;60.20;25.80;;;20.10;99.90;;;;;;4935511;29;20082;-72
2022/08/26 04:30:38;;;;;;;57.33;26.10;;;20.10;99.90;;;;;;4952905;29;20047;-70
2022/08/26 04:33:04;;;;;;;51.80;23.55;;;20.20;99.90;;;;;;4953601;28;20051;-74
2022/08/26 04:35:30;;;;;;;58.08;24.50;;;20.20;99.90;;;;;;4953815;28;20063;-71
2022/08/26 04:37:57;;;;;;;53.72;25.75;;;20.20;99.90;;;;;;4953932;29;20062;-71
2022/08/26 04:40:26;;;;;;;45.45;21.83;;;20.10;99.90;;;;;;4936391;29;20055;-73
2022/08/26 04:42:52;;;;;;;51.90;21.08;;;20.20;99.90;;;;;;4952243;29;20054;-73
2022/08/26 04:45:18;;;;;;;47.67;23.40;;;20.20;99.90;;;;;;4953003;29;20133;-72
2022/08/26 04:47:45;;;;;;;49.17;22.70;;;20.10;99.90;;;;;;4954182;29;20461;-75
2022/08/26 04:50:11;;;;;;;46.00;21.60;;;20.20;99.90;;;;;;4936960;29;20122;-70
2022/08/26 04:52:37;;;;;;;45.97;22.43;;;20.10;99.90;;;;;;4953682;29;20126;-71
2022/08/26 04:55:04;;;;;;;43.63;20.10;;;20.10;99.90;;;;;;4953196;28;20647;-71
2022/08/26 04:57:30;;;;;;;45.50;20.48;;;20.10;99.90;;;;;;4951363;29;20063;-72
2022/08/26 04:59:56;;;;;;;41.88;18.95;;;20.20;99.90;;;;;;4953780;29;20065;-70
2022/08/26 05:02:22;;;;;;;45.92;18.55;;;20.20;99.90;;;;;;4935134;29;20051;-71
2022/08/26 05:04:48;;;;;;;44.13;19.17;;;20.20;99.90;;;;;;4936350;29;20043;-71
2022/08/26 05:07:14;;;;;;;44.93;19.33;;;20.30;99.90;;;;;;4935306;29;20039;-71
2022/08/26 05:09:40;;;;;;;37.03;19.07;;;20.30;99.90;;;;;;4936014;29;20207;-71
2022/08/26 05:12:06;;;;;;;47.50;20.83;;;20.30;99.90;;;;;;4951008;28;20113;-74
2022/08/26 05:14:31;;;;;;;43.47;18.42;;;20.20;99.90;;;;;;4951752;29;20053;-73
2022/08/26 05:16:57;;;;;;;37.27;17.87;;;20.20;99.90;;;;;;4952976;29;20043;-72
2022/08/26 05:19:23;;;;;;;40.83;17.73;;;20.20;99.90;;;;;;4952384;29;20487;-72
2022/08/26 05:21:49;;;;;;;39.45;16.90;;;20.20;99.90;;;;;;4953343;29;20424;-71
2022/08/26 05:24:16;;;;;;;36.37;15.83;;;20.30;99.90;;;;;;4951504;28;20047;-75
2022/08/26 05:26:42;;;;;;;36.95;16.38;;;20.20;99.90;;;;;;4952127;28;20526;-71
2022/08/26 05:29:08;;;;;;;38.30;15.73;;;20.30;99.90;;;;;;4918511;29;20172;-79
2022/08/26 05:31:34;;;;;;;37.43;17.17;;;20.30;99.90;;;;;;4952718;28;20051;-73
2022/08/26 05:34:02;;;;;;;36.00;16.00;;;20.20;99.90;;;;;;4934957;29;20102;-72
2022/08/26 05:36:29;;;;;;;35.53;15.23;;;20.20;99.90;;;;;;4934900;29;20051;-71
2022/08/26 05:38:56;;;;;;;34.63;14.55;;;20.30;99.90;;;;;;4953345;29;20114;-74
2022/08/26 05:41:30;;;;;;;37.33;15.20;;;20.30;99.90;;;;;;4935294;29;20094;-70
2022/08/26 05:43:58;;;;;;;33.60;14.43;;;20.40;99.90;;;;;;4952414;29;20059;-72
2022/08/26 05:46:27;;;;;;;35.42;14.65;;;20.30;99.90;;;;;;4936633;29;20134;-71
2022/08/26 05:48:57;;;;;;;35.80;14.05;;;20.40;99.90;;;;;;4933908;29;20160;-71
2022/08/26 05:51:23;;;;;;;34.10;12.98;;;20.40;99.90;;;;;;4935605;29;20052;-71
2022/08/26 05:53:50;;;;;;;30.05;14.45;;;20.40;99.90;;;;;;4952667;29;20047;-70
2022/08/26 05:56:16;;;;;;;38.47;13.88;;;20.40;99.90;;;;;;4953336;29;20086;-74
2022/08/26 05:58:42;;;;;;;37.28;14.30;;;20.40;99.90;;;;;;4950670;29;20061;-71
2022/08/26 06:01:18;;;;;;;33.95;12.63;;;20.50;99.90;;;;;;4916949;29;20047;-70
2022/08/26 06:03:46;;;;;;;31.73;13.60;;;20.60;99.90;;;;;;4936202;29;20420;-72
2022/08/26 06:06:15;;;;;;;39.40;12.73;;;20.50;99.90;;;;;;4953007;29;20047;-73
2022/08/26 06:08:41;;;;;;;31.73;11.18;;;20.40;99.90;;;;;;4952575;28;20134;-70
2022/08/26 06:11:10;;;;;;;35.38;11.80;;;20.50;99.90;;;;;;4953347;29;20075;-73
2022/08/26 06:13:37;;;;;;;39.53;12.05;;;20.50;99.90;;;;;;4950117;29;20122;-70
2022/08/26 06:16:04;;;;;;;;;;;20.60;99.90;;;;;;4920311;29;20055;-72
2022/08/26 06:18:33;;;;;;;32.65;10.90;;;20.60;99.90;;;;;;4952338;28;20017;-72
2022/08/26 06:21:09;;;;;;;31.73;11.95;;;20.70;99.90;;;;;;4935771;29;20179;-72
2022/08/26 06:26:18;;;;;;;35.05;11.13;;;20.80;99.90;;;;;;4926726;29;20062;-73
2022/08/26 06:28:44;;;;;;;28.20;10.60;;;20.90;99.90;;;;;;4956311;29;20039;-74
2022/08/26 06:31:10;;;;;;;31.90;10.70;;;20.90;99.90;;;;;;4956920;29;20130;-71
2022/08/26 06:33:36;;;;;;;29.13;9.80;;;20.90;99.90;;;;;;4956820;29;20489;-71
2022/08/26 06:36:02;;;;;;;28.10;9.60;;;20.90;99.90;;;;;;4940383;29;20139;-72
2022/08/26 06:38:28;;;;;;;28.75;8.10;;;20.80;99.90;;;;;;4939220;29;20047;-72
2022/08/26 06:40:54;;;;;;;33.33;8.80;;;20.80;99.90;;;;;;4940538;29;20330;-72
2022/08/26 06:43:22;;;;;;;31.10;9.53;;;20.80;99.90;;;;;;4956201;29;20051;-72
2022/08/26 06:45:49;;;;;;;23.20;7.93;;;20.80;99.90;;;;;;4957541;29;20051;-69
2022/08/26 06:48:19;;;;;;;27.02;9.38;;;20.90;99.90;;;;;;4939400;29;20047;-72
2022/08/26 06:50:45;;;;;;;36.30;8.70;;;20.80;99.90;;;;;;4957216;29;20043;-72
2022/08/26 06:53:12;;;;;;;29.75;9.23;;;20.80;99.90;;;;;;4955751;28;20039;-73
2022/08/26 06:55:40;;;;;;;29.55;8.80;;;20.90;99.90;;;;;;4956786;29;20440;-74
2022/08/26 06:58:08;;;;;;;22.95;7.85;;;20.70;99.90;;;;;;4938535;29;20070;-74
2022/08/26 07:00:35;;;;;;;30.67;7.90;;;20.80;99.90;;;;;;4956285;29;20051;-74
2022/08/26 07:03:01;;;;;;;34.25;8.52;;;20.80;99.90;;;;;;4938816;29;20050;-72
2022/08/26 07:05:28;;;;;;;33.58;9.27;;;20.80;99.90;;;;;;4957604;29;20153;-74
2022/08/26 07:07:57;;;;;;;30.08;8.38;;;20.90;99.90;;;;;;4957042;29;20051;-73
2022/08/26 07:10:24;;;;;;;30.47;8.40;;;21.00;99.90;;;;;;4923999;29;20488;-74
2022/08/26 07:12:50;;;;;;;33.75;8.77;;;21.00;99.90;;;;;;4939111;29;20122;-71
2022/08/26 07:15:17;;;;;;;32.77;8.20;;;21.00;99.90;;;;;;4956975;29;20138;-72
2022/08/26 07:17:44;;;;;;;25.33;7.97;;;21.00;99.90;;;;;;4957711;29;20561;-74
2022/08/26 07:20:10;;;;;;;28.65;7.88;;;21.00;99.90;;;;;;4924612;29;20110;-71
2022/08/26 07:22:37;;;;;;;24.20;7.65;;;20.90;99.90;;;;;;4957385;29;20118;-70
2022/08/26 07:25:08;;;;;;;24.92;7.85;;;20.90;99.90;;;;;;4957297;29;20043;-71
2022/08/26 07:27:35;;;;;;;25.80;7.78;;;20.80;99.90;;;;;;4939154;29;20400;-71
2022/08/26 07:30:02;;;;;;;39.10;7.85;;;20.80;99.90;;;;;;4955685;29;20110;-71
2022/08/26 07:32:28;;;;;;;34.83;7.38;;;20.80;99.90;;;;;;4938789;29;20055;-71
2022/08/26 07:34:53;;;;;;;30.77;6.37;;;20.90;99.90;;;;;;4938287;28;20054;-71
2022/08/26 07:37:19;;;;;;;30.67;7.37;;;20.90;99.90;;;;;;4938642;29;20125;-81
2022/08/26 07:39:46;;;;;;;31.17;7.40;;;20.90;99.90;;;;;;4938542;29;20051;-71
2022/08/26 07:42:14;;;;;;;26.35;6.53;;;20.90;99.90;;;;;;4928087;29;20075;-71
2022/08/26 07:44:41;;;;;;;31.42;7.10;;;20.90;99.90;;;;;;4922882;29;20117;-72
2022/08/26 07:47:07;;;;;;;;;;;20.80;99.90;;;;;;4922746;29;20121;-77
2022/08/26 07:49:33;;;;;;;;;;;20.70;99.90;;;;;;4955745;29;19945;-71
2022/08/26 07:51:59;;;;;;;21.65;6.80;;;20.80;99.90;;;;;;4956519;29;19938;-73
2022/08/26 07:54:24;;;;;;;22.17;6.53;;;20.70;99.90;;;;;;4955971;29;20051;-71
2022/08/26 07:56:50;;;;;;;31.70;6.90;;;20.80;99.90;;;;;;4956265;29;20063;-73
2022/08/26 07:59:17;;;;;;;32.53;7.63;;;20.90;99.90;;;;;;4925144;29;20090;-72
2022/08/26 08:01:45;;;;;;;31.75;6.65;;;20.80;99.90;;;;;;4939649;29;20102;-73
2022/08/26 08:04:16;;;;;;;22.52;6.20;;;20.70;99.90;;;;;;4942475;29;20043;-72
2022/08/26 08:06:42;;;;;;;23.02;6.13;;;20.80;99.90;;;;;;4957484;29;20519;-73
2022/08/26 08:09:08;;;;;;;26.73;6.05;;;20.70;99.90;;;;;;4958474;29;20051;-72
2022/08/26 08:11:34;;;;;;;24.23;6.45;;;20.70;99.90;;;;;;4940881;29;20460;-73
2022/08/26 08:14:01;;;;;;;31.52;6.43;;;20.60;99.90;;;;;;4941022;29;20114;-70
2022/08/26 08:16:28;;;;;;;22.23;5.65;;;20.60;99.90;;;;;;4940357;29;20122;-71
2022/08/26 08:18:55;;;;;;;21.75;5.50;;;20.70;99.90;;;;;;4958318;29;20047;-73
2022/08/26 08:21:22;;;;;;;22.38;4.50;;;20.80;99.90;;;;;;4942185;29;20078;-71
2022/08/26 08:23:48;;;;;;;27.48;5.35;;;20.90;99.90;;;;;;4958589;29;20051;-74
2022/08/26 08:26:14;;;;;;;17.85;5.13;;;20.80;99.90;;;;;;4927955;29;20047;-73
2022/08/26 08:28:40;;;;;;;25.17;4.93;;;20.90;99.90;;;;;;4959109;29;20062;-72
2022/08/26 08:31:06;;;;;;;21.52;4.68;;;20.80;99.90;;;;;;4942823;29;20054;-72
2022/08/26 08:33:33;;;;;;;20.77;4.93;;;20.90;99.90;;;;;;4942613;29;20047;-71
2022/08/26 08:36:00;;;;;;;24.55;4.57;;;21.00;99.90;;;;;;4944168;29;20082;-70
2022/08/26 08:38:26;;;;;;;21.67;5.20;;;21.00;99.90;;;;;;4958231;29;20043;-80
2022/08/26 08:40:52;;;;;;;24.55;4.38;;;21.10;99.90;;;;;;4941353;29;20057;-71
2022/08/26 08:43:30;;;;;;;20.90;4.40;;;21.30;99.90;;;;;;4956915;29;20047;-73
2022/08/26 08:46:08;;;;;;;18.98;4.13;;;21.40;99.90;;;;;;4960235;29;20055;-73
2022/08/26 08:48:39;;;;;;;15.38;4.38;;;21.50;99.90;;;;;;4959057;28;20085;-73
2022/08/26 08:51:13;;;;;;;21.42;4.50;;;21.60;99.90;;;;;;4921506;29;20083;-74
2022/08/26 08:53:44;;;;;;;16.45;3.70;;;21.60;99.90;;;;;;4919897;29;20059;-71
2022/08/26 08:56:22;;;;;;;20.23;3.33;;;21.70;99.90;;;;;;4920136;29;20055;-71
2022/08/26 08:59:17;;;;;;;19.65;3.35;;;21.80;99.90;;;;;;4915761;29;20056;-75
2022/08/26 09:02:04;;;;;;;12.15;2.25;;;21.50;99.90;;;;;;4919184;29;20079;-75
2022/08/26 09:04:36;;;;;;;10.18;2.65;;;21.70;99.90;;;;;;4918974;29;20074;-77
2022/08/26 09:07:05;;;;;;;15.95;2.17;;;21.50;99.90;;;;;;4917283;29;20123;-73
2022/08/26 09:09:53;;;;;;;12.95;2.25;;;21.70;99.90;;;;;;4912974;29;20047;-77
2022/08/26 09:12:23;;;;;;;14.73;2.85;;;21.70;99.90;;;;;;4919051;29;20059;-74
2022/08/26 09:14:50;;;;;;;15.43;2.53;;;21.80;99.90;;;;;;4917949;29;20052;-75
2022/08/26 09:18:01;;;;;;;19.60;2.30;;;21.70;99.90;;;;;;4911205;29;20056;-77
2022/08/26 09:21:04;;;;;;;17.63;2.38;;;21.70;99.90;;;;;;4880318;29;20422;-72
2022/08/26 09:23:32;;;;;;;22.90;2.80;;;21.70;99.90;;;;;;4885190;29;20588;-74
2022/08/26 09:26:24;;;;;;;15.18;2.72;;;21.70;99.90;;;;;;4902017;29;20519;-70
2022/08/26 09:29:03;;;;;;;14.90;1.90;;;21.60;99.90;;;;;;4919492;29;20103;-72
2022/08/26 09:31:37;;;;;;;16.33;2.58;;;21.70;99.90;;;;;;4916139;29;20135;-71
2022/08/26 09:34:14;;;;;;;16.25;2.58;;;21.60;99.90;;;;;;4922224;29;20122;-72
2022/08/26 09:36:49;;;;;;;16.08;2.15;;;21.70;99.90;;;;;;4941077;29;20090;-74
2022/08/26 09:39:36;;;;;;;10.35;1.95;;;21.70;99.90;;;;;;4931276;29;20055;-72
2022/08/26 09:42:10;;;;;;;18.00;2.53;;;21.60;99.90;;;;;;4917036;29;20040;-75
2022/08/26 09:45:05;;;;;;;16.23;2.55;;;21.40;99.90;;;;;;4916223;29;20040;-80
2022/08/26 09:47:46;;;;;;;14.23;1.98;;;21.50;99.90;;;;;;4916006;29;20048;-73
2022/08/26 09:50:25;;;;;;;15.13;1.70;;;21.40;99.90;;;;;;4916406;29;20044;-73
2022/08/26 09:53:24;;;;;;;14.15;1.80;;;21.60;99.90;;;;;;4915506;29;20049;-73
2022/08/26 09:56:08;;;;;;;13.15;1.90;;;21.60;99.90;;;;;;4914258;29;20052;-70
2022/08/26 09:58:38;;;;;;;19.20;1.75;;;21.80;99.90;;;;;;4919523;29;20408;-74
2022/08/26 10:01:07;;;;;;;11.68;1.83;;;22.00;99.90;;;;;;4938380;29;20055;-78
2022/08/26 10:03:36;;;;;;;12.45;1.63;;;21.90;99.90;;;;;;4939163;29;20083;-73
2022/08/26 10:06:05;;;;;;;11.73;1.83;;;22.10;99.90;;;;;;4938430;29;20050;-71
2022/08/26 10:08:36;;;;;;;14.77;2.22;;;22.00;99.90;;;;;;4939431;29;20047;-73
2022/08/26 10:11:16;;;;;;;16.73;1.83;;;22.00;99.90;;;;;;4939566;29;20054;-72
2022/08/26 10:13:47;;;;;;;18.15;2.17;;;21.90;99.90;;;;;;4939287;29;20087;-74
2022/08/26 10:16:32;;;;;;;14.38;1.98;;;21.80;99.90;;;;;;4941347;29;20051;-70
2022/08/26 10:19:08;;;;;;;14.57;1.70;;;21.70;99.90;;;;;;4924058;29;20067;-73
2022/08/26 10:21:52;;;;;;;14.07;1.98;;;21.70;99.90;;;;;;4940375;29;20039;-71
2022/08/26 10:24:40;;;;;;;18.23;1.92;;;21.90;99.90;;;;;;4939196;29;20066;-71
2022/08/26 10:27:15;;;;;;;13.00;2.28;;;22.00;99.90;;;;;;4939494;29;20070;-71
2022/08/26 10:29:46;;;;;;;17.45;2.15;;;21.90;99.90;;;;;;4938368;29;20087;-79
2022/08/26 10:32:34;;;;;;;11.63;2.20;;;21.90;99.90;;;;;;4937931;29;20052;-71
2022/08/26 10:35:01;;;;;;;20.10;2.50;;;21.90;99.90;;;;;;4936598;29;20086;-69
2022/08/26 10:37:36;;;;;;;11.43;2.40;;;22.10;99.90;;;;;;4938081;29;20149;-70
2022/08/26 10:40:33;;;;;;;14.68;2.00;;;22.40;99.90;;;;;;4938033;29;20093;-71
2022/08/26 10:43:08;;;;;;;14.43;2.08;;;22.40;99.90;;;;;;4928182;29;20059;-73
2022/08/26 10:45:49;;;;;;;14.32;2.22;;;22.10;99.90;;;;;;4927810;29;20485;-72
2022/08/26 10:48:41;;;;;;;16.67;2.35;;;21.80;99.90;;;;;;4936909;29;20062;-72
2022/08/26 10:51:10;;;;;;;15.15;2.10;;;22.00;99.90;;;;;;4935932;29;20191;-70
2022/08/26 10:54:08;;;;;;;15.02;2.55;;;22.10;99.90;;;;;;4935139;29;20071;-73
2022/08/26 10:56:51;;;;;;;17.98;2.80;;;22.40;99.90;;;;;;4940018;29;20082;-73
2022/08/26 10:59:17;;;;;;;15.52;1.83;;;22.60;99.90;;;;;;4937148;29;20070;-72
2022/08/26 11:01:56;;;;;;;13.63;2.30;;;22.60;99.90;;;;;;4938723;29;20488;-79
2022/08/26 11:04:46;;;;;;;14.98;2.38;;;22.30;99.90;;;;;;4955712;29;20073;-73
2022/08/26 11:07:44;;;;;;;16.73;2.35;;;22.20;99.90;;;;;;4956413;29;20070;-74
2022/08/26 11:10:19;;;;;;;23.42;2.80;;;22.00;99.90;;;;;;4937346;29;20047;-77
2022/08/26 11:12:48;;;;;;;13.77;2.42;;;22.00;99.90;;;;;;4938514;29;20469;-82
2022/08/26 11:15:20;;;;;;;23.42;2.72;;;22.00;99.90;;;;;;4937957;29;20047;-74
2022/08/26 11:17:46;;;;;;;15.93;2.42;;;22.10;99.90;;;;;;4954772;29;20463;-79
2022/08/26 11:20:38;;;;;;;21.57;2.93;;;22.10;99.90;;;;;;4938729;29;20175;-75
2022/08/26 11:23:22;;;;;;;18.63;2.83;;;22.00;99.90;;;;;;4937980;29;20062;-74
2022/08/26 11:25:59;;;;;;;15.85;3.20;;;22.00;99.90;;;;;;4956200;29;20130;-74
2022/08/26 11:28:48;;;;;;;19.17;3.00;;;21.80;99.90;;;;;;4954603;28;20055;-73
2022/08/26 11:31:24;;;;;;;19.33;2.58;;;21.80;99.90;;;;;;4956280;29;20079;-73
2022/08/26 11:34:02;;;;;;;17.83;2.85;;;21.80;99.90;;;;;;4938818;29;20142;-73
2022/08/26 11:36:36;;;;;;;19.80;3.13;;;21.40;99.90;;;;;;4956103;29;20047;-73
2022/08/26 11:39:32;;;;;;;18.90;3.10;;;21.60;99.90;;;;;;4955099;29;20094;-73
2022/08/26 11:42:23;;;;;;;18.98;2.72;;;21.40;99.90;;;;;;4956089;29;20043;-73
2022/08/26 11:44:49;;;;;;;20.05;2.67;;;21.20;99.90;;;;;;4954595;29;20047;-74
2022/08/26 11:47:24;;;;;;;20.83;2.80;;;21.20;99.90;;;;;;4956067;29;20050;-74
2022/08/26 11:50:04;;;;;;;18.38;2.65;;;21.20;99.90;;;;;;4955509;29;20774;-74
2022/08/26 11:52:29;;;;;;;21.83;2.53;;;21.20;99.90;;;;;;4924984;29;20142;-74
2022/08/26 11:55:10;;;;;;;17.40;2.50;;;21.20;99.90;;;;;;4938419;29;20122;-72
2022/08/26 11:57:44;;;;;;;15.90;2.80;;;21.10;99.90;;;;;;4938017;29;20055;-71
2022/08/26 12:00:32;;;;;;;17.40;2.80;;;20.60;99.90;;;;;;4954260;28;20047;-72
2022/08/26 12:03:01;;;;;;;15.32;3.10;;;20.40;99.90;;;;;;4956821;29;20054;-75
2022/08/26 12:05:31;;;;;;;22.30;3.60;;;19.90;99.90;;;;;;4939991;29;20051;-76
2022/08/26 12:08:01;;;;;;;19.55;3.30;;;19.60;99.90;;;;;;4955548;29;20051;-75
2022/08/26 12:10:32;;;;;;;13.77;2.42;;;19.60;99.90;;;;;;4955444;29;20127;-72
2022/08/26 12:12:59;;;;;;;18.80;2.80;;;19.40;99.90;;;;;;4953914;28;20571;-78
2022/08/26 12:15:28;;;;;;;13.38;2.95;;;19.40;99.90;;;;;;4955404;29;20047;-72
2022/08/26 12:17:53;;;;;;;15.02;2.83;;;19.40;99.90;;;;;;4937576;29;20365;-72
2022/08/26 12:20:54;;;;;;;19.90;2.93;;;19.40;99.90;;;;;;4938090;29;20058;-73
2022/08/26 12:23:40;;;;;;;18.17;2.63;;;19.40;99.90;;;;;;4937250;29;20054;-73
2022/08/26 12:26:11;;;;;;;14.85;2.45;;;19.50;99.90;;;;;;4936737;29;20105;-72
2022/08/26 12:28:45;;;;;;;18.30;3.50;;;19.60;99.90;;;;;;4936714;29;20099;-74
2022/08/26 12:31:24;;;;;;;23.67;3.13;;;19.70;99.90;;;;;;4937232;29;20051;-71
2022/08/26 12:33:51;;;;;;;15.35;2.92;;;19.80;99.90;;;;;;4953831;29;20055;-80
2022/08/26 12:36:33;;;;;;;16.40;3.10;;;19.90;99.90;;;;;;4937947;29;20167;-73
2022/08/26 12:39:11;;;;;;;18.50;2.25;;;20.00;99.90;;;;;;4936997;29;20047;-74
2022/08/26 12:41:43;;;;;;;11.88;2.40;;;20.20;99.90;;;;;;4937802;29;20089;-73
2022/08/26 12:44:33;;;;;;;10.98;2.40;;;20.30;99.90;;;;;;4952874;29;20078;-73
2022/08/26 12:47:22;;;;;;;13.25;2.05;;;20.50;99.90;;;;;;4953646;29;20503;-74
2022/08/26 12:49:57;;;;;;;12.70;2.50;;;20.40;99.90;;;;;;4937338;29;20122;-74
2022/08/26 12:52:28;;;;;;;13.02;2.05;;;20.60;99.90;;;;;;4954564;29;20054;-72
2022/08/26 12:55:01;;;;;;;11.50;2.17;;;20.70;99.90;;;;;;4952987;29;20051;-74
2022/08/26 12:57:36;;;;;;;12.15;1.63;;;20.80;99.90;;;;;;4954087;29;20066;-74
2022/08/26 13:00:32;;;;;;;13.88;1.95;;;20.70;99.90;;;;;;4953394;29;20110;-75